Time;durP1;ratioP1;P1;durP2;ratioP2;P2;SDS_P1;SDS_P2;PMS_P1;PMS_P2;Temp;Humidity;BMP_temperature;BMP_pressure;BME280_temperature;BME280_humidity;BME280_pressure;Samples;Min_cycle;Max_cycle;Signal;HPM_P1;HPM_P2
2024/01/30 00:01:37;;;;;;;5.90;2.10;;;;;;;9.57;100.00;102655.53;5057572;27;96908;-27
2024/01/30 00:04:03;;;;;;;2.17;1.55;;;;;;;9.52;100.00;102657.50;5057349;27;101079;-27
2024/01/30 00:06:28;;;;;;;3.50;2.08;;;;;;;9.56;100.00;102656.50;5057507;27;98748;-27
2024/01/30 00:08:54;;;;;;;2.72;1.77;;;;;;;9.59;100.00;102647.41;5057646;27;96488;-27
2024/01/30 00:11:19;;;;;;;4.25;2.58;;;;;;;9.54;100.00;102644.81;5057781;27;96941;-27
2024/01/30 00:13:44;;;;;;;3.65;2.28;;;;;;;9.59;100.00;102644.69;5056876;27;98788;-27
2024/01/30 00:16:25;;;;;;;2.67;1.90;;;;;;;9.56;100.00;102633.03;5055756;27;98429;-27
2024/01/30 00:18:51;;;;;;;2.53;1.50;;;;;;;9.60;100.00;102650.03;5057184;27;96688;-27
2024/01/30 00:21:17;;;;;;;3.22;1.73;;;;;;;9.50;100.00;102638.59;5056028;27;96930;-26
2024/01/30 00:23:42;;;;;;;4.47;1.70;;;;;;;9.64;100.00;102650.84;5057085;27;99714;-26
2024/01/30 00:26:08;;;;;;;3.78;2.30;;;;;;;9.65;99.73;102647.19;5057455;27;97317;-30
2024/01/30 00:28:33;;;;;;;3.78;2.65;;;;;;;9.60;99.89;102638.34;5057421;27;96607;-30
2024/01/30 00:30:58;;;;;;;5.78;2.50;;;;;;;9.57;100.00;102631.19;5057440;27;96758;-29
2024/01/30 00:33:24;;;;;;;3.72;2.00;;;;;;;9.53;100.00;102618.69;5057021;27;97341;-29
2024/01/30 00:35:49;;;;;;;5.65;2.58;;;;;;;9.57;100.00;102618.56;5057399;27;101218;-29
2024/01/30 00:38:14;;;;;;;4.03;2.13;;;;;;;9.58;100.00;102627.53;5057483;27;96624;-30
2024/01/30 00:40:40;;;;;;;4.03;2.22;;;;;;;9.50;100.00;102614.25;5057336;27;96843;-30
2024/01/30 00:43:05;;;;;;;5.82;1.60;;;;;;;9.54;100.00;102612.34;5056062;27;99066;-29
2024/01/30 00:45:31;;;;;;;4.43;2.50;;;;;;;9.57;100.00;102615.84;5056655;27;99031;-29
2024/01/30 00:47:56;;;;;;;3.58;1.88;;;;;;;9.49;100.00;102614.31;5056991;27;96568;-31
2024/01/30 00:50:21;;;;;;;3.53;2.33;;;;;;;9.53;100.00;102621.38;5056927;27;96799;-31
2024/01/30 00:52:47;;;;;;;2.35;1.73;;;;;;;9.57;100.00;102632.06;5056857;27;97266;-29
2024/01/30 00:55:14;;;;;;;4.90;1.98;;;;;;;9.59;99.88;102632.03;5056238;27;99138;-29
2024/01/30 00:57:39;;;;;;;3.47;2.13;;;;;;;9.58;99.65;102632.97;5055180;27;97084;-29
2024/01/30 01:00:06;;;;;;;3.17;2.10;;;;;;;9.61;99.37;102621.19;5056955;27;96760;-29
2024/01/30 01:02:34;;;;;;;4.03;1.63;;;;;;;9.66;99.20;102630.06;5055057;27;100878;-30
2024/01/30 01:04:59;;;;;;;4.13;2.17;;;;;;;9.68;98.75;102629.06;5054945;27;100827;-31
2024/01/30 01:07:25;;;;;;;6.30;2.42;;;;;;;9.69;98.44;102627.25;5056303;27;96501;-29
2024/01/30 01:09:50;;;;;;;3.30;2.20;;;;;;;9.62;98.54;102618.41;5057101;27;96874;-29
2024/01/30 01:12:15;;;;;;;3.90;2.40;;;;;;;9.61;98.57;102608.53;5056322;27;97863;-29
2024/01/30 01:14:41;;;;;;;3.28;1.90;;;;;;;9.57;99.10;102610.44;5056491;27;97165;-29
2024/01/30 01:17:07;;;;;;;1.65;1.35;;;;;;;9.64;98.61;102616.56;5056471;27;96668;-27
2024/01/30 01:19:32;;;;;;;3.10;1.92;;;;;;;9.67;98.29;102619.16;5054993;27;96839;-28
2024/01/30 01:21:58;;;;;;;3.17;1.75;;;;;;;9.65;98.00;102614.72;5055994;27;99520;-27
2024/01/30 01:24:24;;;;;;;3.95;2.30;;;;;;;9.61;98.47;102607.66;5056457;27;99301;-28
2024/01/30 01:26:49;;;;;;;5.68;2.40;;;;;;;9.65;98.38;102610.19;5054955;27;96703;-27
2024/01/30 01:29:15;;;;;;;3.45;2.22;;;;;;;9.70;98.23;102607.38;5056845;27;96460;-26
2024/01/30 01:31:43;;;;;;;2.50;1.70;;;;;;;9.68;97.95;102614.66;5054123;27;100836;-27
2024/01/30 01:34:10;;;;;;;3.58;2.22;;;;;;;9.59;98.81;102615.81;5056002;27;97358;-29
2024/01/30 01:36:36;;;;;;;4.70;2.53;;;;;;;9.61;98.86;102604.97;5054819;27;96609;-27
2024/01/30 01:39:01;;;;;;;6.20;2.00;;;;;;;9.66;98.58;102603.00;5056362;27;96787;-27
2024/01/30 01:41:31;;;;;;;5.13;2.22;;;;;;;9.64;98.68;102594.03;5055316;27;99374;-28
2024/01/30 01:43:56;;;;;;;3.45;2.17;;;;;;;9.59;98.93;102586.06;5055613;27;99778;-27
2024/01/30 01:46:22;;;;;;;3.00;1.83;;;;;;;9.67;98.48;102604.75;5056215;27;96556;-27
2024/01/30 01:48:48;;;;;;;3.83;2.20;;;;;;;9.56;98.67;102605.09;5056512;27;96521;-27
2024/01/30 01:51:14;;;;;;;4.10;2.33;;;;;;;9.71;98.27;102620.84;5054192;27;101041;-27
2024/01/30 01:53:40;;;;;;;4.00;2.25;;;;;;;9.65;97.66;102603.91;5055811;27;97282;-27
2024/01/30 01:56:06;;;;;;;2.35;1.88;;;;;;;9.67;98.20;102612.88;5054803;27;96864;-27
2024/01/30 01:58:31;;;;;;;3.05;2.13;;;;;;;9.65;98.02;102602.09;5053832;27;96865;-27
2024/01/30 02:01:00;;;;;;;3.22;1.75;;;;;;;9.66;98.44;102598.47;5054994;27;99243;-27
2024/01/30 02:03:25;;;;;;;3.08;2.10;;;;;;;9.66;98.84;102595.75;5055675;27;97118;-27
2024/01/30 02:05:51;;;;;;;1.98;1.52;;;;;;;9.71;98.27;102588.38;5055749;27;96543;-27
2024/01/30 02:08:17;;;;;;;5.75;1.88;;;;;;;9.69;98.46;102592.94;5055580;27;96658;-28
2024/01/30 02:10:42;;;;;;;3.40;2.15;;;;;;;9.77;98.12;102592.72;5055223;27;99815;-27
2024/01/30 02:13:08;;;;;;;3.78;2.60;;;;;;;9.72;98.33;102582.03;5055562;27;98880;-27
2024/01/30 02:15:33;;;;;;;9.02;1.77;;;;;;;9.75;98.01;102579.25;5054273;27;96604;-27
2024/01/30 02:17:58;;;;;;;2.53;1.92;;;;;;;9.77;97.93;102587.31;5055638;27;96857;-27
2024/01/30 02:20:24;;;;;;;3.42;2.20;;;;;;;9.77;98.80;102590.91;5054618;27;99422;-28
2024/01/30 02:22:53;;;;;;;1.85;1.23;;;;;;;9.79;98.37;102586.31;5055512;27;97290;-26
2024/01/30 02:25:18;;;;;;;2.08;1.42;;;;;;;9.72;99.01;102582.03;5055773;27;96390;-27
2024/01/30 02:27:44;;;;;;;1.90;1.48;;;;;;;9.73;99.02;102591.94;5055560;27;96770;-27
2024/01/30 02:30:10;;;;;;;5.93;2.67;;;;;;;9.65;99.10;102591.25;5055204;27;97855;-27
2024/01/30 02:32:35;;;;;;;2.58;1.70;;;;;;;9.71;98.79;102591.09;5053680;27;102332;-28
2024/01/30 02:35:01;;;;;;;3.05;1.83;;;;;;;9.69;98.98;102595.66;5055450;27;96571;-27
2024/01/30 02:37:26;;;;;;;4.05;1.73;;;;;;;9.63;99.31;102585.03;5055689;27;96728;-27
2024/01/30 02:39:51;;;;;;;5.15;2.15;;;;;;;9.61;99.47;102592.31;5055050;27;97306;-27
2024/01/30 02:42:17;;;;;;;4.18;2.17;;;;;;;9.54;100.00;102580.78;5055089;27;97799;-28
2024/01/30 02:44:42;;;;;;;2.97;1.58;;;;;;;9.67;99.62;102592.09;5054751;27;96685;-26
2024/01/30 02:47:07;;;;;;;3.22;1.80;;;;;;;9.71;99.55;102588.38;5055345;27;96777;-27
2024/01/30 02:49:33;;;;;;;2.80;1.98;;;;;;;9.65;99.05;102577.72;5055185;27;97392;-27
2024/01/30 02:51:58;;;;;;;2.55;1.77;;;;;;;9.63;99.71;102573.31;5054571;27;99096;-27
2024/01/30 02:54:23;;;;;;;4.80;1.98;;;;;;;9.66;99.48;102570.53;5054603;27;96734;-27
2024/01/30 02:56:49;;;;;;;1.92;1.42;;;;;;;9.66;100.00;102566.00;5055016;27;96784;-27
2024/01/30 02:59:14;;;;;;;2.75;1.95;;;;;;;9.66;99.96;102562.41;5054118;27;99852;-27
2024/01/30 03:01:44;;;;;;;1.70;1.35;;;;;;;9.68;99.73;102549.72;5054966;27;98807;-26
2024/01/30 03:04:09;;;;;;;2.38;1.55;;;;;;;9.64;99.95;102539.91;5053626;27;96569;-28
2024/01/30 03:06:34;;;;;;;2.22;1.63;;;;;;;9.71;100.00;102550.50;5055130;27;96792;-27
2024/01/30 03:09:00;;;;;;;1.60;1.13;;;;;;;9.68;100.00;102550.59;5053994;27;99337;-27
2024/01/30 03:11:25;;;;;;;4.53;2.25;;;;;;;9.69;100.00;102555.06;5054964;27;97885;-27
2024/01/30 03:13:51;;;;;;;2.42;1.85;;;;;;;9.68;100.00;102556.03;5054925;27;96513;-27
2024/01/30 03:16:16;;;;;;;4.13;2.30;;;;;;;9.71;100.00;102560.44;5054829;27;96881;-27
2024/01/30 03:18:42;;;;;;;2.92;1.73;;;;;;;9.63;100.00;102548.94;5054183;27;101521;-27
2024/01/30 03:21:07;;;;;;;4.18;1.33;;;;;;;9.62;100.00;102549.91;5057600;27;99602;-31
2024/01/30 03:23:32;;;;;;;2.60;1.95;;;;;;;9.72;99.68;102570.31;5058515;27;96620;-28
2024/01/30 03:25:58;;;;;;;2.40;1.75;;;;;;;9.70;99.58;102558.66;5058612;27;96843;-26
2024/01/30 03:28:23;;;;;;;4.18;2.35;;;;;;;9.71;99.74;102560.44;5057791;27;99292;-27
2024/01/30 03:30:48;;;;;;;3.05;2.00;;;;;;;9.69;99.86;102551.50;5057738;27;100792;-28
2024/01/30 03:33:14;;;;;;;2.15;1.35;;;;;;;9.69;100.00;102559.59;5057840;27;96579;-27
2024/01/30 03:35:39;;;;;;;3.38;2.20;;;;;;;9.76;99.90;102564.78;5058432;27;96869;-27
2024/01/30 03:38:04;;;;;;;3.65;2.03;;;;;;;9.78;99.97;102571.03;5057939;27;97387;-27
2024/01/30 03:40:30;;;;;;;3.33;1.65;;;;;;;9.74;100.00;102561.22;5057760;27;97779;-28
2024/01/30 03:42:55;;;;;;;1.60;1.17;;;;;;;9.75;100.00;102560.31;5058091;27;96553;-27
2024/01/30 03:45:20;;;;;;;3.78;1.98;;;;;;;9.84;99.81;102563.66;5058219;27;96791;-27
2024/01/30 03:47:45;;;;;;;4.03;2.15;;;;;;;9.70;100.00;102548.75;5057566;27;98881;-28
2024/01/30 03:50:11;;;;;;;2.28;1.73;;;;;;;9.79;100.00;102558.38;5057775;27;105864;-26
2024/01/30 03:52:36;;;;;;;3.08;1.95;;;;;;;9.75;100.00;102545.91;5058262;27;96621;-26
2024/01/30 03:55:02;;;;;;;1.75;1.42;;;;;;;9.82;100.00;102558.31;5057428;27;96891;-27
2024/01/30 03:57:27;;;;;;;2.58;1.95;;;;;;;9.84;100.00;102552.81;5057176;27;97488;-27
2024/01/30 03:59:53;;;;;;;2.28;1.52;;;;;;;9.74;100.00;102553.09;5056941;27;102739;-27
2024/01/30 04:02:18;;;;;;;3.38;1.70;;;;;;;9.64;100.00;102551.63;5057596;27;96586;-26
2024/01/30 04:04:44;;;;;;;3.03;2.10;;;;;;;9.66;100.00;102547.06;5057929;27;96801;-27
2024/01/30 04:07:09;;;;;;;5.40;1.70;;;;;;;9.62;100.00;102536.38;5057253;27;101870;-27
2024/01/30 04:09:34;;;;;;;1.85;1.45;;;;;;;9.60;100.00;102536.41;5057369;27;97906;-27
2024/01/30 04:12:00;;;;;;;2.85;1.48;;;;;;;9.59;100.00;102534.66;5058061;27;96597;-26
2024/01/30 04:14:25;;;;;;;2.13;1.50;;;;;;;9.65;100.00;102538.97;5058227;27;96694;-27
2024/01/30 04:16:50;;;;;;;4.72;1.90;;;;;;;9.56;100.00;102541.03;5057309;27;97561;-27
2024/01/30 04:19:16;;;;;;;2.50;1.80;;;;;;;9.57;100.00;102533.81;5057437;27;97967;-27
2024/01/30 04:21:41;;;;;;;3.47;1.60;;;;;;;9.70;100.00;102539.72;5056878;27;96619;-27
2024/01/30 04:24:06;;;;;;;9.10;2.20;;;;;;;9.69;100.00;102543.38;5057726;27;96881;-27
2024/01/30 04:26:32;;;;;;;3.78;1.90;;;;;;;9.70;100.00;102542.41;5057154;27;97892;-27
2024/01/30 04:28:57;;;;;;;2.13;1.48;;;;;;;9.75;100.00;102535.97;5057125;27;97777;-27
2024/01/30 04:31:22;;;;;;;2.83;1.65;;;;;;;9.72;100.00;102536.03;5056823;27;96646;-27
2024/01/30 04:33:48;;;;;;;3.40;1.83;;;;;;;9.70;100.00;102526.19;5057188;27;96821;-27
2024/01/30 04:36:13;;;;;;;2.80;1.92;;;;;;;9.77;100.00;102533.19;5057099;27;97384;-28
2024/01/30 04:38:39;;;;;;;1.88;1.50;;;;;;;9.73;100.00;102527.00;5057297;27;97739;-27
2024/01/30 04:41:05;;;;;;;6.15;1.98;;;;;;;9.69;100.00;102529.84;5056852;27;96608;-27
2024/01/30 04:43:30;;;;;;;4.40;1.95;;;;;;;9.62;100.00;102531.84;5055815;27;96886;-27
2024/01/30 04:45:56;;;;;;;3.03;1.58;;;;;;;9.58;100.00;102532.84;5056122;27;99501;-27
2024/01/30 04:48:21;;;;;;;3.60;1.85;;;;;;;9.59;100.00;102539.19;5055512;27;101077;-27
2024/01/30 04:50:46;;;;;;;4.35;2.03;;;;;;;9.53;100.00;102522.22;5056728;27;96591;-27
2024/01/30 04:53:12;;;;;;;3.97;2.53;;;;;;;9.52;100.00;102512.31;5056815;27;96832;-27
2024/01/30 04:55:37;;;;;;;3.55;2.60;;;;;;;9.51;100.00;102517.75;5056350;27;99895;-27
2024/01/30 04:58:02;;;;;;;2.80;1.75;;;;;;;9.55;100.00;102532.97;5055995;27;99275;-27
2024/01/30 05:00:28;;;;;;;5.22;2.35;;;;;;;9.55;100.00;102525.72;5056638;27;96730;-28
2024/01/30 05:02:55;;;;;;;1.42;1.05;;;;;;;9.56;100.00;102540.16;5057026;27;96813;-27
2024/01/30 05:05:21;;;;;;;12.68;1.77;;;;;;;9.54;100.00;102539.31;5054793;27;101598;-26
2024/01/30 05:07:47;;;;;;;3.25;2.03;;;;;;;9.54;100.00;102529.38;5055058;27;98971;-27
2024/01/30 05:10:12;;;;;;;7.35;2.15;;;;;;;9.52;100.00;102533.06;5054766;27;96744;-27
2024/01/30 05:12:39;;;;;;;1.58;1.35;;;;;;;9.53;100.00;102538.44;5056738;27;96805;-27
2024/01/30 05:15:04;;;;;;;4.38;2.13;;;;;;;9.47;100.00;102525.09;5056492;27;97347;-27
2024/01/30 05:17:30;;;;;;;2.22;1.38;;;;;;;9.52;100.00;102535.75;5056068;27;98952;-27
2024/01/30 05:19:55;;;;;;;2.47;1.65;;;;;;;9.56;100.00;102532.94;5056426;27;96559;-27
2024/01/30 05:22:20;;;;;;;2.47;1.88;;;;;;;9.58;100.00;102530.16;5056508;27;96941;-27
2024/01/30 05:24:46;;;;;;;3.10;1.98;;;;;;;9.57;100.00;102520.28;5056432;27;97362;-28
2024/01/30 05:27:13;;;;;;;1.83;1.40;;;;;;;9.78;100.00;102527.72;5056579;27;98010;-27
2024/01/30 05:29:39;;;;;;;1.88;1.38;;;;;;;9.79;100.00;102518.66;5056265;27;96645;-26
2024/01/30 05:32:05;;;;;;;2.33;1.48;;;;;;;9.77;100.00;102528.69;5056579;27;96757;-27
2024/01/30 05:34:31;;;;;;;2.70;2.05;;;;;;;9.82;100.00;102533.94;5054108;27;100969;-27
2024/01/30 05:36:56;;;;;;;2.20;1.50;;;;;;;9.86;100.00;102532.03;5056130;27;97312;-27
2024/01/30 05:39:21;;;;;;;3.42;2.15;;;;;;;9.85;100.00;102524.84;5056016;27;96572;-26
2024/01/30 05:41:47;;;;;;;2.50;1.73;;;;;;;9.85;100.00;102530.25;5054987;27;96832;-27
2024/01/30 05:44:12;;;;;;;3.72;1.80;;;;;;;9.87;100.00;102539.22;5056140;27;100490;-27
2024/01/30 05:46:37;;;;;;;3.15;2.13;;;;;;;9.85;100.00;102535.69;5056005;27;97199;-27
2024/01/30 05:49:03;;;;;;;6.47;2.00;;;;;;;9.86;100.00;102542.84;5056199;27;96531;-28
2024/01/30 05:51:28;;;;;;;3.55;1.80;;;;;;;9.80;100.00;102530.41;5056387;27;96805;-27
2024/01/30 05:53:54;;;;;;;3.38;2.00;;;;;;;9.83;100.00;102540.25;5055315;27;99440;-27
2024/01/30 05:56:19;;;;;;;5.50;2.60;;;;;;;9.89;100.00;102550.84;5055436;27;99162;-29
2024/01/30 05:58:44;;;;;;;5.63;2.38;;;;;;;9.86;100.00;102542.84;5054722;27;96792;-27
2024/01/30 06:01:10;;;;;;;2.35;1.48;;;;;;;9.88;100.00;102549.09;5055682;27;96927;-27
2024/01/30 06:03:35;;;;;;;8.13;2.05;;;;;;;9.89;100.00;102548.16;5055742;27;98505;-27
2024/01/30 06:06:01;;;;;;;4.68;2.67;;;;;;;9.86;100.00;102543.72;5055407;27;97977;-26
2024/01/30 06:08:26;;;;;;;4.82;2.00;;;;;;;9.90;100.00;102547.25;5056343;27;96583;-28
2024/01/30 06:10:52;;;;;;;2.15;1.55;;;;;;;9.91;100.00;102552.56;5055920;27;96777;-27
2024/01/30 06:13:17;;;;;;;2.45;1.63;;;;;;;9.94;100.00;102554.34;5055208;27;99281;-27
2024/01/30 06:15:42;;;;;;;3.17;2.05;;;;;;;9.87;100.00;102545.50;5055794;27;97860;-26
2024/01/30 06:18:08;;;;;;;2.53;1.92;;;;;;;9.91;100.00;102539.03;5055697;27;96663;-26
2024/01/30 06:20:34;;;;;;;4.70;2.22;;;;;;;9.97;100.00;102546.09;5055511;27;96887;-26
2024/01/30 06:22:59;;;;;;;4.70;1.92;;;;;;;9.91;100.00;102549.00;5054829;27;97476;-27
2024/01/30 06:25:24;;;;;;;2.33;1.35;;;;;;;9.96;100.00;102555.16;5055089;27;98737;-28
2024/01/30 06:27:50;;;;;;;6.30;2.60;;;;;;;9.96;100.00;102550.66;5055593;27;96602;-27
2024/01/30 06:30:15;;;;;;;2.50;1.50;;;;;;;9.95;100.00;102540.72;5055507;27;96878;-27
2024/01/30 06:32:40;;;;;;;3.85;2.67;;;;;;;9.99;100.00;102545.13;5055038;27;99735;-27
2024/01/30 06:35:06;;;;;;;4.40;1.60;;;;;;;10.03;100.00;102550.44;5054943;27;98020;-26
2024/01/30 06:37:32;;;;;;;1.73;1.48;;;;;;;10.03;100.00;102553.13;5055520;27;96631;-27
2024/01/30 06:39:57;;;;;;;3.20;1.92;;;;;;;10.03;100.00;102551.31;5054606;27;96825;-27
2024/01/30 06:42:22;;;;;;;2.55;1.55;;;;;;;9.99;100.00;102541.53;5055143;27;97382;-27
2024/01/30 06:44:48;;;;;;;1.67;1.45;;;;;;;10.06;100.00;102559.34;5054981;27;97775;-27
2024/01/30 06:47:13;;;;;;;6.50;2.15;;;;;;;10.01;100.00;102553.22;5054916;27;96738;-28
2024/01/30 06:49:38;;;;;;;3.25;1.67;;;;;;;10.07;100.00;102555.69;5054895;27;96874;-27
2024/01/30 06:52:07;;;;;;;3.03;2.33;;;;;;;10.08;100.00;102559.28;5055024;27;97469;-27
2024/01/30 06:54:33;;;;;;;2.83;1.90;;;;;;;10.11;100.00;102560.09;5052814;27;101481;-27
2024/01/30 06:56:58;;;;;;;5.88;2.38;;;;;;;10.13;100.00;102565.44;5054910;27;96581;-27
2024/01/30 06:59:24;;;;;;;3.72;2.33;;;;;;;10.09;100.00;102556.53;5054710;27;96885;-27
2024/01/30 07:01:49;;;;;;;3.22;1.48;;;;;;;10.05;100.00;102554.84;5054825;27;97954;-27
2024/01/30 07:04:15;;;;;;;2.10;1.58;;;;;;;10.12;100.00;102564.56;5054673;27;98100;-27
2024/01/30 07:06:41;;;;;;;3.85;2.05;;;;;;;10.12;100.00;102560.97;5053470;27;96600;-27
2024/01/30 07:09:06;;;;;;;1.83;1.48;;;;;;;10.13;100.00;102554.59;5055198;27;96797;-27
2024/01/30 07:11:32;;;;;;;2.22;1.67;;;;;;;10.10;100.00;102558.31;5054247;27;97930;-27
2024/01/30 07:13:57;;;;;;;1.73;1.33;;;;;;;10.17;100.00;102564.41;5054336;27;99380;-27
2024/01/30 07:16:23;;;;;;;6.22;2.60;;;;;;;10.19;100.00;102562.53;5054725;27;96704;-27
2024/01/30 07:18:48;;;;;;;3.83;2.10;;;;;;;10.25;100.00;102570.47;5054568;27;96963;-27
2024/01/30 07:21:14;;;;;;;4.85;2.08;;;;;;;10.27;100.00;102573.13;5053862;27;98473;-32
2024/01/30 07:23:41;;;;;;;3.13;1.90;;;;;;;10.25;100.00;102573.19;5052005;27;98992;-31
2024/01/30 07:26:06;;;;;;;2.80;2.00;;;;;;;10.29;100.00;102580.28;5052164;27;96992;-30
2024/01/30 07:28:32;;;;;;;2.15;1.35;;;;;;;10.29;100.00;102569.47;5052522;27;97012;-29
2024/01/30 07:30:57;;;;;;;1.60;1.02;;;;;;;10.38;100.00;102580.00;5050346;27;101138;-27
2024/01/30 07:33:23;;;;;;;2.45;2.00;;;;;;;10.37;100.00;102577.34;5051809;27;97351;-28
2024/01/30 07:35:48;;;;;;;2.97;1.70;;;;;;;10.40;100.00;102588.97;5051862;27;97085;-28
2024/01/30 07:38:14;;;;;;;6.00;2.15;;;;;;;10.46;100.00;102590.56;5054605;27;97414;-27
2024/01/30 07:40:39;;;;;;;1.25;1.13;;;;;;;10.51;100.00;102588.63;5054248;27;98244;-27
2024/01/30 07:43:04;;;;;;;2.95;1.73;;;;;;;10.54;100.00;102584.94;5054024;27;99736;-27
2024/01/30 07:45:33;;;;;;;2.83;1.50;;;;;;;10.55;100.00;102586.69;5054657;27;96522;-27
2024/01/30 07:47:59;;;;;;;2.40;1.75;;;;;;;10.59;100.00;102589.25;5054052;27;96834;-28
2024/01/30 07:50:25;;;;;;;2.00;1.35;;;;;;;10.60;100.00;102596.41;5052733;27;100827;-27
2024/01/30 07:52:54;;;;;;;2.50;1.60;;;;;;;10.58;100.00;102589.28;5053217;27;100680;-27
2024/01/30 07:55:28;;;;;;;1.67;1.23;;;;;;;10.64;100.00;102602.63;5054063;27;96656;-27
2024/01/30 07:57:54;;;;;;;3.17;1.60;;;;;;;10.70;100.00;102596.09;5052327;27;96759;-27
2024/01/30 08:00:21;;;;;;;4.47;1.85;;;;;;;10.74;100.00;102601.38;5053463;27;97616;-27
2024/01/30 08:02:55;;;;;;;6.65;1.58;;;;;;;10.75;100.00;102607.69;5052613;27;100790;-27
2024/01/30 08:05:22;;;;;;;2.35;1.38;;;;;;;10.79;100.00;102606.63;5054717;27;96690;-27
2024/01/30 08:07:49;;;;;;;3.15;1.83;;;;;;;10.78;100.00;102608.47;5057791;27;96807;-28
2024/01/30 08:10:15;;;;;;;2.03;1.58;;;;;;;10.82;100.00;102614.66;5055967;27;100841;-28
2024/01/30 08:12:41;;;;;;;4.03;1.55;;;;;;;10.81;100.00;102613.78;5055812;27;101376;-26
2024/01/30 08:15:07;;;;;;;3.03;1.92;;;;;;;10.86;100.00;102610.03;5057725;27;96694;-27
2024/01/30 08:17:32;;;;;;;1.58;1.20;;;;;;;10.86;100.00;102618.16;5058384;27;96780;-27
2024/01/30 08:19:58;;;;;;;2.92;2.08;;;;;;;10.89;100.00;102624.34;5057338;27;97929;-28
2024/01/30 08:22:23;;;;;;;3.85;1.83;;;;;;;10.91;100.00;102627.91;5055782;27;98927;-27
2024/01/30 08:24:49;;;;;;;2.80;1.70;;;;;;;10.99;100.00;102627.66;5056727;27;96739;-27
2024/01/30 08:27:14;;;;;;;3.20;2.15;;;;;;;11.01;100.00;102632.09;5057426;27;96810;-27
2024/01/30 08:29:40;;;;;;;1.95;1.40;;;;;;;11.00;100.00;102635.72;5056758;27;99723;-27
2024/01/30 08:32:06;;;;;;;2.28;1.55;;;;;;;11.02;100.00;102639.28;5057058;27;97717;-27
2024/01/30 08:34:31;;;;;;;2.22;1.80;;;;;;;11.03;100.00;102624.75;5039053;27;96631;-28
2024/01/30 08:36:57;;;;;;;2.80;1.85;;;;;;;11.05;100.00;102625.59;5057500;27;96818;-27
2024/01/30 08:39:22;;;;;;;3.30;1.67;;;;;;;11.11;99.97;102632.66;5056930;27;97887;-26
2024/01/30 08:41:48;;;;;;;3.70;1.98;;;;;;;11.13;100.00;102628.06;5057104;27;99272;-27
2024/01/30 08:44:13;;;;;;;2.88;1.73;;;;;;;11.16;99.72;102627.06;5056884;27;96710;-27
2024/01/30 08:46:38;;;;;;;2.28;1.77;;;;;;;11.20;99.12;102632.34;5055759;27;98202;-26
2024/01/30 08:49:04;;;;;;;3.53;2.28;;;;;;;11.08;99.31;102618.31;5054616;27;101292;-27
2024/01/30 08:51:32;;;;;;;8.77;2.17;;;;;;;11.01;100.00;102618.53;5055329;27;100881;-27
2024/01/30 08:53:57;;;;;;;3.25;1.52;;;;;;;11.01;100.00;102631.19;5055357;27;96589;-27
2024/01/30 08:56:24;;;;;;;2.92;1.73;;;;;;;10.92;100.00;102624.28;5057055;27;96956;-27
2024/01/30 08:58:49;;;;;;;3.95;1.80;;;;;;;10.99;100.00;102635.81;5055754;27;98068;-27
2024/01/30 09:01:16;;;;;;;5.45;2.78;;;;;;;10.99;100.00;102636.69;5056795;27;96903;-27
2024/01/30 09:03:43;;;;;;;2.95;1.73;;;;;;;11.05;100.00;102638.28;5056902;27;96512;-27
2024/01/30 09:06:10;;;;;;;6.05;2.40;;;;;;;11.17;100.00;102631.53;5056972;27;96849;-26
2024/01/30 09:08:35;;;;;;;2.13;1.35;;;;;;;11.21;99.42;102630.50;5055054;27;100775;-27
2024/01/30 09:11:00;;;;;;;4.75;1.95;;;;;;;11.16;99.41;102632.50;5056560;27;97366;-26
2024/01/30 09:13:26;;;;;;;4.03;2.22;;;;;;;11.07;99.79;102635.53;5056283;27;96861;-27
2024/01/30 09:15:51;;;;;;;2.63;1.65;;;;;;;11.08;100.00;102638.16;5056865;27;96730;-27
2024/01/30 09:18:16;;;;;;;2.95;1.85;;;;;;;11.11;100.00;102653.44;5056295;27;97898;-29
2024/01/30 09:20:42;;;;;;;3.95;1.73;;;;;;;11.07;100.00;102639.13;5055973;27;99380;-27
2024/01/30 09:23:08;;;;;;;3.03;2.08;;;;;;;11.12;100.00;102650.69;5056559;27;96549;-27
2024/01/30 09:25:34;;;;;;;6.78;2.05;;;;;;;11.15;100.00;102652.41;5055007;27;96889;-27
2024/01/30 09:27:59;;;;;;;3.53;1.67;;;;;;;11.18;99.66;102658.63;5055602;27;99891;-27
2024/01/30 09:30:25;;;;;;;5.53;1.98;;;;;;;11.23;98.71;102653.03;5056595;27;97312;-27
2024/01/30 09:32:50;;;;;;;7.18;2.28;;;;;;;11.30;98.48;102654.59;5056619;27;96533;-27
2024/01/30 09:35:15;;;;;;;8.52;2.47;;;;;;;11.34;98.58;102664.38;5056355;27;96909;-27
2024/01/30 09:37:40;;;;;;;2.72;1.85;;;;;;;11.35;98.58;102659.84;5055582;27;97938;-26
2024/01/30 09:40:08;;;;;;;2.58;1.92;;;;;;;11.32;98.56;102663.56;5056523;27;97220;-27
2024/01/30 09:42:38;;;;;;;1.77;1.13;;;;;;;11.27;98.67;102662.81;5054542;27;96593;-27
2024/01/30 09:45:05;;;;;;;6.97;2.30;;;;;;;11.33;98.53;102681.59;5056066;27;96648;-26
2024/01/30 09:47:44;;;;;;;3.53;1.85;;;;;;;11.34;98.42;102698.75;5054296;27;102407;-27
2024/01/30 09:50:11;;;;;;;3.97;2.33;;;;;;;11.25;98.55;102687.31;5055641;27;99319;-28
2024/01/30 09:52:37;;;;;;;4.68;2.28;;;;;;;11.31;98.39;102688.91;5054662;27;96621;-27
2024/01/30 09:55:03;;;;;;;9.40;2.67;;;;;;;11.29;98.23;102685.34;5054769;27;96825;-27
2024/01/30 09:57:28;;;;;;;3.92;2.58;;;;;;;11.24;98.76;102688.22;5054289;27;101033;-29
2024/01/30 09:59:54;;;;;;;3.38;2.28;;;;;;;11.29;98.45;102698.91;5055046;27;99478;-27
2024/01/30 10:02:20;;;;;;;5.13;2.15;;;;;;;11.26;98.43;102696.31;5055545;27;96550;-27
2024/01/30 10:04:48;;;;;;;4.57;1.80;;;;;;;11.21;99.10;102701.03;5056088;27;96793;-27
2024/01/30 10:07:14;;;;;;;1.90;1.55;;;;;;;11.19;98.97;102708.31;5054013;27;101315;-27
2024/01/30 10:09:40;;;;;;;3.13;1.67;;;;;;;11.24;98.19;102704.50;5053698;27;101261;-27
2024/01/30 10:12:06;;;;;;;3.35;1.40;;;;;;;11.25;97.71;102706.28;5055584;27;96519;-27
2024/01/30 10:14:31;;;;;;;2.03;1.35;;;;;;;11.21;97.15;102698.31;5054330;27;96912;-27
2024/01/30 10:16:58;;;;;;;4.18;1.33;;;;;;;11.17;96.70;102696.63;5053994;27;99436;-29
2024/01/30 10:19:23;;;;;;;2.35;1.60;;;;;;;11.26;96.81;102704.47;5054356;27;100783;-27
2024/01/30 10:21:49;;;;;;;2.35;1.50;;;;;;;11.16;96.52;102706.59;5055487;27;96674;-27
2024/01/30 10:24:14;;;;;;;1.98;1.10;;;;;;;11.09;96.00;102713.19;5055156;27;96844;-27
2024/01/30 10:26:39;;;;;;;0.82;0.70;;;;;;;11.10;96.12;102735.75;5054858;27;97749;-26
2024/01/30 10:29:05;;;;;;;1.00;0.63;;;;;;;10.94;95.67;102709.16;5054749;27;97426;-28
2024/01/30 10:31:31;;;;;;;2.15;0.55;;;;;;;10.91;95.41;102717.38;5055468;27;96468;-27
2024/01/30 10:33:56;;;;;;;4.72;0.60;;;;;;;10.88;95.58;102733.75;5055731;27;96760;-28
2024/01/30 10:36:28;;;;;;;1.77;0.50;;;;;;;10.86;95.15;102734.75;5055129;27;97553;-27
2024/01/30 10:38:58;;;;;;;0.40;0.38;;;;;;;10.90;94.51;102749.97;5053719;27;100919;-27
2024/01/30 10:41:27;;;;;;;2.60;0.98;;;;;;;10.89;94.12;102749.06;5053934;27;96692;-27
2024/01/30 10:44:08;;;;;;;0.28;0.25;;;;;;;10.88;93.57;102741.00;5055551;27;96767;-27
2024/01/30 10:46:35;;;;;;;1.55;0.80;;;;;;;10.79;93.52;102736.75;5053728;27;99146;-27
2024/01/30 10:49:00;;;;;;;1.08;0.57;;;;;;;10.80;93.25;102754.81;5053472;27;99219;-27
2024/01/30 10:51:29;;;;;;;1.63;0.40;;;;;;;10.81;93.82;102743.03;5054710;27;96787;-27
2024/01/30 10:53:56;;;;;;;0.90;0.65;;;;;;;10.66;92.87;102738.97;5054758;27;96838;-28
2024/01/30 10:56:22;;;;;;;0.88;0.43;;;;;;;10.68;93.12;102744.34;5053456;27;101577;-27
2024/01/30 10:58:52;;;;;;;0.70;0.52;;;;;;;10.68;93.18;102741.63;5035980;27;101017;-27
2024/01/30 11:01:20;;;;;;;1.38;0.82;;;;;;;10.65;92.85;102744.44;5053400;27;96617;-27
2024/01/30 11:03:45;;;;;;;1.08;0.75;;;;;;;10.62;92.78;102740.88;5053695;27;96750;-27
2024/01/30 11:06:18;;;;;;;4.22;0.88;;;;;;;10.60;92.89;102748.16;5055004;27;97276;-27
2024/01/30 11:08:44;;;;;;;0.30;0.30;;;;;;;10.56;93.24;102748.34;5053640;27;101147;-27
2024/01/30 11:11:10;;;;;;;0.45;0.45;;;;;;;10.54;93.38;102770.06;5055139;27;96820;-27
2024/01/30 11:13:36;;;;;;;0.80;0.22;;;;;;;10.45;93.94;102761.31;5054890;27;96833;-26
2024/01/30 11:16:02;;;;;;;1.02;0.50;;;;;;;10.27;94.70;102757.28;5054086;27;97299;-26
2024/01/30 11:18:33;;;;;;;2.20;0.52;;;;;;;10.21;95.57;102759.25;5052924;27;100149;-27